sensor_id;sensor_type;location;lat;lon;timestamp;P1;durP1;ratioP1;P2;durP2;ratioP2
10299;SDS011;5195;48.562;9.192;2022-09-02T00:02:15;3.17;;;2.90;;
10299;SDS011;5195;48.562;9.192;2022-09-02T00:04:42;2.78;;;2.58;;
10299;SDS011;5195;48.562;9.192;2022-09-02T00:07:08;2.90;;;2.70;;
10299;SDS011;5195;48.562;9.192;2022-09-02T00:09:34;3.00;;;2.80;;
10299;SDS011;5195;48.562;9.192;2022-09-02T00:12:00;3.00;;;2.80;;
10299;SDS011;5195;48.562;9.192;2022-09-02T00:14:31;2.50;;;2.40;;
10299;SDS011;5195;48.562;9.192;2022-09-02T00:16:55;2.60;;;2.50;;
10299;SDS011;5195;48.562;9.192;2022-09-02T00:19:23;3.00;;;2.60;;
10299;SDS011;5195;48.562;9.192;2022-09-02T00:21:47;2.83;;;2.63;;
10299;SDS011;5195;48.562;9.192;2022-09-02T00:24:13;2.90;;;2.70;;
10299;SDS011;5195;48.562;9.192;2022-09-02T00:26:38;2.90;;;2.70;;
10299;SDS011;5195;48.562;9.192;2022-09-02T00:29:04;2.80;;;2.60;;
10299;SDS011;5195;48.562;9.192;2022-09-02T00:31:30;2.90;;;2.70;;
10299;SDS011;5195;48.562;9.192;2022-09-02T00:33:55;2.90;;;2.70;;
10299;SDS011;5195;48.562;9.192;2022-09-02T00:36:21;2.80;;;2.60;;
10299;SDS011;5195;48.562;9.192;2022-09-02T00:38:47;3.00;;;2.80;;
10299;SDS011;5195;48.562;9.192;2022-09-02T00:41:13;2.90;;;2.80;;
10299;SDS011;5195;48.562;9.192;2022-09-02T00:43:57;2.97;;;2.80;;
10299;SDS011;5195;48.562;9.192;2022-09-02T00:46:22;3.30;;;3.03;;
10299;SDS011;5195;48.562;9.192;2022-09-02T00:48:48;2.90;;;2.80;;
10299;SDS011;5195;48.562;9.192;2022-09-02T00:51:12;3.30;;;3.03;;
10299;SDS011;5195;48.562;9.192;2022-09-02T00:53:39;3.00;;;2.90;;
10299;SDS011;5195;48.562;9.192;2022-09-02T00:56:05;2.87;;;2.77;;
10299;SDS011;5195;48.562;9.192;2022-09-02T00:58:30;3.58;;;3.37;;
10299;SDS011;5195;48.562;9.192;2022-09-02T01:00:55;2.83;;;2.70;;
10299;SDS011;5195;48.562;9.192;2022-09-02T01:03:21;3.20;;;3.10;;
10299;SDS011;5195;48.562;9.192;2022-09-02T01:05:47;2.95;;;2.80;;
10299;SDS011;5195;48.562;9.192;2022-09-02T01:08:16;3.15;;;2.83;;
10299;SDS011;5195;48.562;9.192;2022-09-02T01:10:41;2.53;;;2.43;;
10299;SDS011;5195;48.562;9.192;2022-09-02T01:13:07;3.00;;;2.80;;
10299;SDS011;5195;48.562;9.192;2022-09-02T01:15:33;2.87;;;2.77;;
10299;SDS011;5195;48.562;9.192;2022-09-02T01:18:00;3.00;;;2.80;;
10299;SDS011;5195;48.562;9.192;2022-09-02T01:20:26;2.83;;;2.70;;
10299;SDS011;5195;48.562;9.192;2022-09-02T01:22:52;3.37;;;3.17;;
10299;SDS011;5195;48.562;9.192;2022-09-02T01:25:22;3.20;;;3.00;;
10299;SDS011;5195;48.562;9.192;2022-09-02T01:27:43;2.73;;;2.63;;
10299;SDS011;5195;48.562;9.192;2022-09-02T01:30:09;3.08;;;2.87;;
10299;SDS011;5195;48.562;9.192;2022-09-02T01:32:35;3.28;;;3.00;;
10299;SDS011;5195;48.562;9.192;2022-09-02T01:35:02;3.17;;;2.97;;
10299;SDS011;5195;48.562;9.192;2022-09-02T01:37:27;3.43;;;3.00;;
10299;SDS011;5195;48.562;9.192;2022-09-02T01:39:54;3.67;;;2.83;;
10299;SDS011;5195;48.562;9.192;2022-09-02T01:42:19;4.87;;;2.90;;
10299;SDS011;5195;48.562;9.192;2022-09-02T01:44:45;2.97;;;2.87;;
10299;SDS011;5195;48.562;9.192;2022-09-02T01:47:15;2.83;;;2.73;;
10299;SDS011;5195;48.562;9.192;2022-09-02T01:49:37;3.08;;;2.87;;
10299;SDS011;5195;48.562;9.192;2022-09-02T01:52:03;3.23;;;3.03;;
10299;SDS011;5195;48.562;9.192;2022-09-02T01:54:28;3.30;;;3.20;;
10299;SDS011;5195;48.562;9.192;2022-09-02T01:56:54;3.53;;;3.33;;
10299;SDS011;5195;48.562;9.192;2022-09-02T01:59:19;3.67;;;3.47;;
10299;SDS011;5195;48.562;9.192;2022-09-02T02:01:45;3.22;;;3.03;;
10299;SDS011;5195;48.562;9.192;2022-09-02T02:04:11;3.03;;;2.93;;
10299;SDS011;5195;48.562;9.192;2022-09-02T02:06:39;3.40;;;3.20;;
10299;SDS011;5195;48.562;9.192;2022-09-02T02:09:05;3.43;;;2.83;;
10299;SDS011;5195;48.562;9.192;2022-09-02T02:11:30;2.80;;;2.70;;
10299;SDS011;5195;48.562;9.192;2022-09-02T02:13:56;2.75;;;2.55;;
10299;SDS011;5195;48.562;9.192;2022-09-02T02:16:22;2.80;;;2.60;;
10299;SDS011;5195;48.562;9.192;2022-09-02T02:18:47;2.80;;;2.60;;
10299;SDS011;5195;48.562;9.192;2022-09-02T02:21:13;2.70;;;2.60;;
10299;SDS011;5195;48.562;9.192;2022-09-02T02:23:39;2.67;;;2.58;;
10299;SDS011;5195;48.562;9.192;2022-09-02T02:26:04;2.62;;;2.53;;
10299;SDS011;5195;48.562;9.192;2022-09-02T02:28:30;2.33;;;2.23;;
10299;SDS011;5195;48.562;9.192;2022-09-02T02:30:55;2.80;;;2.60;;
10299;SDS011;5195;48.562;9.192;2022-09-02T02:33:21;2.60;;;2.50;;
10299;SDS011;5195;48.562;9.192;2022-09-02T02:35:47;2.80;;;2.60;;
10299;SDS011;5195;48.562;9.192;2022-09-02T02:38:13;2.40;;;2.30;;
10299;SDS011;5195;48.562;9.192;2022-09-02T02:40:38;2.53;;;2.43;;
10299;SDS011;5195;48.562;9.192;2022-09-02T02:43:04;2.60;;;2.50;;
10299;SDS011;5195;48.562;9.192;2022-09-02T02:45:30;2.60;;;2.40;;
10299;SDS011;5195;48.562;9.192;2022-09-02T02:47:56;2.10;;;2.00;;
10299;SDS011;5195;48.562;9.192;2022-09-02T02:50:22;2.08;;;1.98;;
10299;SDS011;5195;48.562;9.192;2022-09-02T02:52:47;2.83;;;2.23;;
10299;SDS011;5195;48.562;9.192;2022-09-02T02:55:13;2.00;;;1.90;;
10299;SDS011;5195;48.562;9.192;2022-09-02T02:57:40;2.37;;;2.00;;
10299;SDS011;5195;48.562;9.192;2022-09-02T03:00:10;2.20;;;2.00;;
10299;SDS011;5195;48.562;9.192;2022-09-02T03:02:34;2.12;;;2.00;;
10299;SDS011;5195;48.562;9.192;2022-09-02T03:05:00;2.40;;;2.30;;
10299;SDS011;5195;48.562;9.192;2022-09-02T03:07:26;2.30;;;2.20;;
10299;SDS011;5195;48.562;9.192;2022-09-02T03:09:51;2.90;;;2.53;;
10299;SDS011;5195;48.562;9.192;2022-09-02T03:12:16;2.50;;;2.30;;
10299;SDS011;5195;48.562;9.192;2022-09-02T03:14:42;2.50;;;2.40;;
10299;SDS011;5195;48.562;9.192;2022-09-02T03:17:08;2.40;;;2.20;;
10299;SDS011;5195;48.562;9.192;2022-09-02T03:19:33;3.10;;;2.90;;
10299;SDS011;5195;48.562;9.192;2022-09-02T03:21:59;2.60;;;2.50;;
10299;SDS011;5195;48.562;9.192;2022-09-02T03:24:25;2.93;;;2.80;;
10299;SDS011;5195;48.562;9.192;2022-09-02T03:26:51;2.70;;;2.60;;
10299;SDS011;5195;48.562;9.192;2022-09-02T03:29:17;3.00;;;2.80;;
10299;SDS011;5195;48.562;9.192;2022-09-02T03:31:42;2.97;;;2.77;;
10299;SDS011;5195;48.562;9.192;2022-09-02T03:34:08;2.65;;;2.00;;
10299;SDS011;5195;48.562;9.192;2022-09-02T03:36:35;2.30;;;2.10;;
10299;SDS011;5195;48.562;9.192;2022-09-02T03:38:59;3.03;;;2.30;;
10299;SDS011;5195;48.562;9.192;2022-09-02T03:41:24;2.17;;;1.90;;
10299;SDS011;5195;48.562;9.192;2022-09-02T03:43:50;2.10;;;2.00;;
10299;SDS011;5195;48.562;9.192;2022-09-02T03:46:16;2.40;;;2.20;;
10299;SDS011;5195;48.562;9.192;2022-09-02T03:48:41;2.40;;;2.20;;
10299;SDS011;5195;48.562;9.192;2022-09-02T03:51:07;2.47;;;2.28;;
10299;SDS011;5195;48.562;9.192;2022-09-02T03:53:32;2.03;;;1.92;;
10299;SDS011;5195;48.562;9.192;2022-09-02T03:56:02;2.37;;;2.20;;
10299;SDS011;5195;48.562;9.192;2022-09-02T03:58:23;2.55;;;2.17;;
10299;SDS011;5195;48.562;9.192;2022-09-02T04:00:50;2.10;;;2.00;;
10299;SDS011;5195;48.562;9.192;2022-09-02T04:03:14;2.07;;;1.97;;
10299;SDS011;5195;48.562;9.192;2022-09-02T04:05:44;2.00;;;1.90;;
10299;SDS011;5195;48.562;9.192;2022-09-02T04:08:05;2.20;;;2.03;;
10299;SDS011;5195;48.562;9.192;2022-09-02T04:10:31;2.97;;;2.20;;
10299;SDS011;5195;48.562;9.192;2022-09-02T04:12:58;2.08;;;1.98;;
10299;SDS011;5195;48.562;9.192;2022-09-02T04:15:23;2.40;;;2.20;;
10299;SDS011;5195;48.562;9.192;2022-09-02T04:17:49;2.65;;;2.37;;
10299;SDS011;5195;48.562;9.192;2022-09-02T04:20:14;2.50;;;2.10;;
10299;SDS011;5195;48.562;9.192;2022-09-02T04:22:40;2.60;;;2.40;;
10299;SDS011;5195;48.562;9.192;2022-09-02T04:25:06;2.45;;;2.20;;
10299;SDS011;5195;48.562;9.192;2022-09-02T04:27:31;2.50;;;2.30;;
10299;SDS011;5195;48.562;9.192;2022-09-02T04:29:57;2.78;;;2.33;;
10299;SDS011;5195;48.562;9.192;2022-09-02T04:32:22;2.20;;;2.10;;
10299;SDS011;5195;48.562;9.192;2022-09-02T04:34:48;2.83;;;2.63;;
10299;SDS011;5195;48.562;9.192;2022-09-02T04:37:14;2.50;;;2.30;;
10299;SDS011;5195;48.562;9.192;2022-09-02T04:39:41;3.08;;;2.67;;
10299;SDS011;5195;48.562;9.192;2022-09-02T04:42:07;2.77;;;2.57;;
10299;SDS011;5195;48.562;9.192;2022-09-02T04:44:32;4.93;;;2.47;;
10299;SDS011;5195;48.562;9.192;2022-09-02T04:46:58;3.10;;;2.67;;
10299;SDS011;5195;48.562;9.192;2022-09-02T04:49:23;3.00;;;2.80;;
10299;SDS011;5195;48.562;9.192;2022-09-02T04:51:56;3.50;;;2.83;;
10299;SDS011;5195;48.562;9.192;2022-09-02T04:54:21;3.23;;;2.97;;
10299;SDS011;5195;48.562;9.192;2022-09-02T04:56:49;2.40;;;2.30;;
10299;SDS011;5195;48.562;9.192;2022-09-02T04:59:16;2.70;;;2.50;;
10299;SDS011;5195;48.562;9.192;2022-09-02T05:01:45;2.33;;;2.20;;
10299;SDS011;5195;48.562;9.192;2022-09-02T05:04:14;2.73;;;2.50;;
10299;SDS011;5195;48.562;9.192;2022-09-02T05:06:41;2.80;;;2.50;;
10299;SDS011;5195;48.562;9.192;2022-09-02T05:09:07;2.60;;;2.50;;
10299;SDS011;5195;48.562;9.192;2022-09-02T05:11:33;2.60;;;2.40;;
10299;SDS011;5195;48.562;9.192;2022-09-02T05:14:03;2.62;;;2.42;;
10299;SDS011;5195;48.562;9.192;2022-09-02T05:16:29;2.33;;;2.23;;
10299;SDS011;5195;48.562;9.192;2022-09-02T05:18:57;2.90;;;2.60;;
10299;SDS011;5195;48.562;9.192;2022-09-02T05:21:23;2.70;;;2.50;;
10299;SDS011;5195;48.562;9.192;2022-09-02T05:23:49;2.20;;;2.10;;
10299;SDS011;5195;48.562;9.192;2022-09-02T05:26:15;2.73;;;2.53;;
10299;SDS011;5195;48.562;9.192;2022-09-02T05:28:41;2.70;;;2.50;;
10299;SDS011;5195;48.562;9.192;2022-09-02T05:31:07;2.77;;;2.67;;
10299;SDS011;5195;48.562;9.192;2022-09-02T05:33:32;2.80;;;2.70;;
10299;SDS011;5195;48.562;9.192;2022-09-02T05:35:57;2.78;;;2.58;;
10299;SDS011;5195;48.562;9.192;2022-09-02T05:38:23;2.42;;;2.33;;
10299;SDS011;5195;48.562;9.192;2022-09-02T05:40:49;2.60;;;2.40;;
10299;SDS011;5195;48.562;9.192;2022-09-02T05:43:15;2.90;;;2.70;;
10299;SDS011;5195;48.562;9.192;2022-09-02T05:45:40;2.70;;;2.60;;
10299;SDS011;5195;48.562;9.192;2022-09-02T05:48:06;2.80;;;2.60;;
10299;SDS011;5195;48.562;9.192;2022-09-02T05:50:32;2.87;;;2.63;;
10299;SDS011;5195;48.562;9.192;2022-09-02T05:52:58;2.70;;;2.50;;
10299;SDS011;5195;48.562;9.192;2022-09-02T05:55:24;2.50;;;2.40;;
10299;SDS011;5195;48.562;9.192;2022-09-02T05:57:49;3.05;;;2.85;;
10299;SDS011;5195;48.562;9.192;2022-09-02T06:00:15;3.20;;;2.90;;
10299;SDS011;5195;48.562;9.192;2022-09-02T06:02:41;3.63;;;3.33;;
10299;SDS011;5195;48.562;9.192;2022-09-02T06:05:08;3.00;;;2.70;;
10299;SDS011;5195;48.562;9.192;2022-09-02T06:07:32;2.70;;;2.50;;
10299;SDS011;5195;48.562;9.192;2022-09-02T06:09:57;4.93;;;2.40;;
10299;SDS011;5195;48.562;9.192;2022-09-02T06:12:23;2.50;;;2.40;;
10299;SDS011;5195;48.562;9.192;2022-09-02T06:14:49;2.95;;;2.65;;
10299;SDS011;5195;48.562;9.192;2022-09-02T06:17:15;2.80;;;2.60;;
10299;SDS011;5195;48.562;9.192;2022-09-02T06:19:40;3.93;;;2.60;;
10299;SDS011;5195;48.562;9.192;2022-09-02T06:22:06;2.80;;;2.60;;
10299;SDS011;5195;48.562;9.192;2022-09-02T06:24:32;2.80;;;2.60;;
10299;SDS011;5195;48.562;9.192;2022-09-02T06:26:57;2.60;;;2.50;;
10299;SDS011;5195;48.562;9.192;2022-09-02T06:29:23;2.90;;;2.70;;
10299;SDS011;5195;48.562;9.192;2022-09-02T06:31:48;4.57;;;2.60;;
10299;SDS011;5195;48.562;9.192;2022-09-02T06:34:14;2.97;;;2.70;;
10299;SDS011;5195;48.562;9.192;2022-09-02T06:36:40;2.80;;;2.53;;
10299;SDS011;5195;48.562;9.192;2022-09-02T06:39:06;2.53;;;2.33;;
10299;SDS011;5195;48.562;9.192;2022-09-02T06:41:32;2.60;;;2.40;;
10299;SDS011;5195;48.562;9.192;2022-09-02T06:43:58;2.65;;;2.45;;
10299;SDS011;5195;48.562;9.192;2022-09-02T06:46:28;2.40;;;2.20;;
10299;SDS011;5195;48.562;9.192;2022-09-02T06:48:51;3.60;;;2.60;;
10299;SDS011;5195;48.562;9.192;2022-09-02T06:51:18;2.90;;;2.70;;
10299;SDS011;5195;48.562;9.192;2022-09-02T06:53:52;2.87;;;2.60;;
10299;SDS011;5195;48.562;9.192;2022-09-02T06:56:18;2.37;;;2.28;;
10299;SDS011;5195;48.562;9.192;2022-09-02T06:58:43;2.67;;;2.47;;
10299;SDS011;5195;48.562;9.192;2022-09-02T07:01:09;2.57;;;2.47;;
10299;SDS011;5195;48.562;9.192;2022-09-02T07:03:35;3.77;;;2.40;;
10299;SDS011;5195;48.562;9.192;2022-09-02T07:06:21;3.15;;;2.90;;
10299;SDS011;5195;48.562;9.192;2022-09-02T07:08:46;3.10;;;2.70;;
10299;SDS011;5195;48.562;9.192;2022-09-02T07:11:16;2.95;;;2.65;;
10299;SDS011;5195;48.562;9.192;2022-09-02T07:13:41;2.30;;;2.20;;
10299;SDS011;5195;48.562;9.192;2022-09-02T07:16:06;3.10;;;2.85;;
10299;SDS011;5195;48.562;9.192;2022-09-02T07:18:32;4.50;;;2.78;;
10299;SDS011;5195;48.562;9.192;2022-09-02T07:20:58;5.17;;;3.97;;
10299;SDS011;5195;48.562;9.192;2022-09-02T07:23:24;5.07;;;3.53;;
10299;SDS011;5195;48.562;9.192;2022-09-02T07:25:50;4.20;;;2.70;;
10299;SDS011;5195;48.562;9.192;2022-09-02T07:28:16;2.93;;;2.70;;
10299;SDS011;5195;48.562;9.192;2022-09-02T07:30:41;5.50;;;3.43;;
10299;SDS011;5195;48.562;9.192;2022-09-02T07:33:07;2.67;;;2.37;;
10299;SDS011;5195;48.562;9.192;2022-09-02T07:35:32;3.73;;;3.33;;
10299;SDS011;5195;48.562;9.192;2022-09-02T07:37:58;3.70;;;3.40;;
10299;SDS011;5195;48.562;9.192;2022-09-02T07:40:23;3.10;;;2.80;;
10299;SDS011;5195;48.562;9.192;2022-09-02T07:42:49;2.87;;;2.67;;
10299;SDS011;5195;48.562;9.192;2022-09-02T07:45:14;2.77;;;2.57;;
10299;SDS011;5195;48.562;9.192;2022-09-02T07:47:40;4.28;;;2.40;;
10299;SDS011;5195;48.562;9.192;2022-09-02T07:50:06;3.37;;;2.47;;
10299;SDS011;5195;48.562;9.192;2022-09-02T07:52:31;3.33;;;2.30;;
10299;SDS011;5195;48.562;9.192;2022-09-02T07:54:58;4.07;;;2.50;;
10299;SDS011;5195;48.562;9.192;2022-09-02T07:57:23;2.30;;;2.20;;
10299;SDS011;5195;48.562;9.192;2022-09-02T07:59:49;3.37;;;2.20;;
10299;SDS011;5195;48.562;9.192;2022-09-02T08:02:14;3.03;;;2.30;;
10299;SDS011;5195;48.562;9.192;2022-09-02T08:04:41;2.23;;;1.90;;
10299;SDS011;5195;48.562;9.192;2022-09-02T08:07:07;3.83;;;2.27;;
10299;SDS011;5195;48.562;9.192;2022-09-02T08:09:34;2.47;;;2.30;;
10299;SDS011;5195;48.562;9.192;2022-09-02T08:11:59;2.72;;;2.53;;
10299;SDS011;5195;48.562;9.192;2022-09-02T08:14:25;2.90;;;2.70;;
10299;SDS011;5195;48.562;9.192;2022-09-02T08:16:51;2.90;;;2.33;;
10299;SDS011;5195;48.562;9.192;2022-09-02T08:19:16;4.07;;;2.60;;
10299;SDS011;5195;48.562;9.192;2022-09-02T08:21:43;2.65;;;2.50;;
10299;SDS011;5195;48.562;9.192;2022-09-02T08:24:08;2.17;;;2.07;;
10299;SDS011;5195;48.562;9.192;2022-09-02T08:26:35;2.40;;;2.30;;
10299;SDS011;5195;48.562;9.192;2022-09-02T08:29:00;2.60;;;2.40;;
10299;SDS011;5195;48.562;9.192;2022-09-02T08:31:26;2.37;;;2.22;;
10299;SDS011;5195;48.562;9.192;2022-09-02T08:33:53;2.60;;;2.40;;
10299;SDS011;5195;48.562;9.192;2022-09-02T08:36:18;2.50;;;2.30;;
10299;SDS011;5195;48.562;9.192;2022-09-02T08:38:45;2.20;;;2.10;;
10299;SDS011;5195;48.562;9.192;2022-09-02T08:41:12;2.50;;;2.30;;
10299;SDS011;5195;48.562;9.192;2022-09-02T08:43:40;2.40;;;2.30;;
10299;SDS011;5195;48.562;9.192;2022-09-02T08:46:07;3.13;;;2.10;;
10299;SDS011;5195;48.562;9.192;2022-09-02T08:48:42;2.00;;;1.90;;
10299;SDS011;5195;48.562;9.192;2022-09-02T08:54:07;2.00;;;1.80;;
10299;SDS011;5195;48.562;9.192;2022-09-02T08:56:33;2.00;;;1.90;;
10299;SDS011;5195;48.562;9.192;2022-09-02T08:59:01;2.13;;;1.93;;
10299;SDS011;5195;48.562;9.192;2022-09-02T09:01:29;2.17;;;2.00;;
10299;SDS011;5195;48.562;9.192;2022-09-02T09:06:40;1.93;;;1.83;;
10299;SDS011;5195;48.562;9.192;2022-09-02T09:09:05;2.17;;;2.07;;
10299;SDS011;5195;48.562;9.192;2022-09-02T09:11:35;2.03;;;1.83;;
10299;SDS011;5195;48.562;9.192;2022-09-02T09:14:03;2.57;;;1.77;;
10299;SDS011;5195;48.562;9.192;2022-09-02T09:16:35;1.40;;;1.30;;
10299;SDS011;5195;48.562;9.192;2022-09-02T09:19:05;2.83;;;1.40;;
10299;SDS011;5195;48.562;9.192;2022-09-02T09:21:41;1.27;;;1.27;;
10299;SDS011;5195;48.562;9.192;2022-09-02T09:24:08;1.52;;;1.37;;
10299;SDS011;5195;48.562;9.192;2022-09-02T09:26:33;1.70;;;1.30;;
10299;SDS011;5195;48.562;9.192;2022-09-02T09:28:59;1.50;;;1.40;;
10299;SDS011;5195;48.562;9.192;2022-09-02T09:31:28;1.42;;;1.33;;
10299;SDS011;5195;48.562;9.192;2022-09-02T09:33:53;1.10;;;1.10;;
10299;SDS011;5195;48.562;9.192;2022-09-02T09:36:31;1.30;;;1.20;;
10299;SDS011;5195;48.562;9.192;2022-09-02T09:38:46;1.20;;;1.20;;
10299;SDS011;5195;48.562;9.192;2022-09-02T09:41:20;1.50;;;1.40;;
10299;SDS011;5195;48.562;9.192;2022-09-02T09:43:44;1.03;;;1.03;;
10299;SDS011;5195;48.562;9.192;2022-09-02T09:46:27;1.60;;;1.48;;
10299;SDS011;5195;48.562;9.192;2022-09-02T09:48:53;1.77;;;1.50;;
10299;SDS011;5195;48.562;9.192;2022-09-02T09:51:18;1.67;;;1.47;;
10299;SDS011;5195;48.562;9.192;2022-09-02T09:53:44;1.87;;;1.45;;
10299;SDS011;5195;48.562;9.192;2022-09-02T10:01:10;1.47;;;1.37;;
10299;SDS011;5195;48.562;9.192;2022-09-02T10:03:54;1.60;;;1.60;;
10299;SDS011;5195;48.562;9.192;2022-09-02T10:06:20;1.50;;;1.40;;
10299;SDS011;5195;48.562;9.192;2022-09-02T10:08:55;1.50;;;1.40;;
10299;SDS011;5195;48.562;9.192;2022-09-02T10:11:25;3.03;;;1.70;;
10299;SDS011;5195;48.562;9.192;2022-09-02T10:13:52;5.37;;;1.80;;
10299;SDS011;5195;48.562;9.192;2022-09-02T10:16:24;1.40;;;1.30;;
10299;SDS011;5195;48.562;9.192;2022-09-02T10:25:06;1.50;;;1.50;;
10299;SDS011;5195;48.562;9.192;2022-09-02T10:27:42;2.27;;;1.40;;
10299;SDS011;5195;48.562;9.192;2022-09-02T10:30:21;1.70;;;1.60;;
10299;SDS011;5195;48.562;9.192;2022-09-02T10:35:45;1.60;;;1.50;;
10299;SDS011;5195;48.562;9.192;2022-09-02T10:41:09;3.43;;;1.77;;
10299;SDS011;5195;48.562;9.192;2022-09-02T10:52:02;1.55;;;1.55;;
10299;SDS011;5195;48.562;9.192;2022-09-02T10:57:28;2.07;;;1.40;;
10299;SDS011;5195;48.562;9.192;2022-09-02T10:59:58;1.50;;;1.40;;
10299;SDS011;5195;48.562;9.192;2022-09-02T11:02:30;1.57;;;1.47;;
10299;SDS011;5195;48.562;9.192;2022-09-02T11:04:59;1.60;;;1.50;;
10299;SDS011;5195;48.562;9.192;2022-09-02T11:07:25;1.50;;;1.40;;
10299;SDS011;5195;48.562;9.192;2022-09-02T11:09:58;2.90;;;1.85;;
10299;SDS011;5195;48.562;9.192;2022-09-02T11:12:33;2.07;;;1.60;;
10299;SDS011;5195;48.562;9.192;2022-09-02T11:22:44;2.10;;;1.93;;
10299;SDS011;5195;48.562;9.192;2022-09-02T11:25:14;2.20;;;1.70;;
10299;SDS011;5195;48.562;9.192;2022-09-02T11:30:13;3.00;;;1.65;;
10299;SDS011;5195;48.562;9.192;2022-09-02T11:32:54;1.70;;;1.60;;
10299;SDS011;5195;48.562;9.192;2022-09-02T11:35:19;2.00;;;1.90;;
10299;SDS011;5195;48.562;9.192;2022-09-02T11:37:50;1.90;;;1.80;;
10299;SDS011;5195;48.562;9.192;2022-09-02T11:40:20;1.80;;;1.80;;
10299;SDS011;5195;48.562;9.192;2022-09-02T11:42:52;1.60;;;1.60;;
10299;SDS011;5195;48.562;9.192;2022-09-02T11:50:55;1.90;;;1.80;;
10299;SDS011;5195;48.562;9.192;2022-09-02T11:53:39;2.50;;;1.80;;
10299;SDS011;5195;48.562;9.192;2022-09-02T11:56:27;1.87;;;1.80;;
10299;SDS011;5195;48.562;9.192;2022-09-02T11:58:40;1.80;;;1.70;;
10299;SDS011;5195;48.562;9.192;2022-09-02T12:03:47;2.00;;;1.90;;
10299;SDS011;5195;48.562;9.192;2022-09-02T12:06:17;2.37;;;2.17;;
10299;SDS011;5195;48.562;9.192;2022-09-02T12:11:08;1.87;;;1.62;;
10299;SDS011;5195;48.562;9.192;2022-09-02T12:13:37;1.95;;;1.65;;
10299;SDS011;5195;48.562;9.192;2022-09-02T12:18:41;2.10;;;1.90;;
10299;SDS011;5195;48.562;9.192;2022-09-02T12:21:07;2.20;;;1.90;;
10299;SDS011;5195;48.562;9.192;2022-09-02T12:26:27;1.70;;;1.60;;
10299;SDS011;5195;48.562;9.192;2022-09-02T12:28:49;1.90;;;1.80;;
10299;SDS011;5195;48.562;9.192;2022-09-02T12:36:56;1.70;;;1.60;;
10299;SDS011;5195;48.562;9.192;2022-09-02T12:41:53;1.97;;;1.87;;
10299;SDS011;5195;48.562;9.192;2022-09-02T12:44:30;2.70;;;1.70;;
10299;SDS011;5195;48.562;9.192;2022-09-02T12:52:40;2.00;;;1.90;;
10299;SDS011;5195;48.562;9.192;2022-09-02T12:57:41;1.90;;;1.80;;
10299;SDS011;5195;48.562;9.192;2022-09-02T13:00:06;3.03;;;1.77;;
10299;SDS011;5195;48.562;9.192;2022-09-02T13:05:23;1.63;;;1.60;;
10299;SDS011;5195;48.562;9.192;2022-09-02T13:18:58;1.87;;;1.77;;
10299;SDS011;5195;48.562;9.192;2022-09-02T13:23:58;1.60;;;1.60;;
10299;SDS011;5195;48.562;9.192;2022-09-02T13:26:31;1.97;;;1.60;;
10299;SDS011;5195;48.562;9.192;2022-09-02T13:34:43;1.93;;;1.83;;
10299;SDS011;5195;48.562;9.192;2022-09-02T13:40:16;2.17;;;1.47;;
10299;SDS011;5195;48.562;9.192;2022-09-02T13:42:48;1.70;;;1.60;;
10299;SDS011;5195;48.562;9.192;2022-09-02T13:45:17;1.90;;;1.80;;
10299;SDS011;5195;48.562;9.192;2022-09-02T13:47:42;1.90;;;1.80;;
10299;SDS011;5195;48.562;9.192;2022-09-02T13:50:07;1.67;;;1.60;;
10299;SDS011;5195;48.562;9.192;2022-09-02T13:52:34;1.73;;;1.70;;
10299;SDS011;5195;48.562;9.192;2022-09-02T13:54:59;1.70;;;1.60;;
10299;SDS011;5195;48.562;9.192;2022-09-02T13:57:26;2.00;;;1.43;;
10299;SDS011;5195;48.562;9.192;2022-09-02T13:59:51;2.20;;;1.50;;
10299;SDS011;5195;48.562;9.192;2022-09-02T14:02:33;2.25;;;1.80;;
10299;SDS011;5195;48.562;9.192;2022-09-02T14:05:14;1.60;;;1.50;;
10299;SDS011;5195;48.562;9.192;2022-09-02T14:07:34;1.63;;;1.53;;
10299;SDS011;5195;48.562;9.192;2022-09-02T14:10:07;1.70;;;1.60;;
10299;SDS011;5195;48.562;9.192;2022-09-02T14:12:31;1.60;;;1.60;;
10299;SDS011;5195;48.562;9.192;2022-09-02T14:14:57;2.50;;;1.60;;
10299;SDS011;5195;48.562;9.192;2022-09-02T14:17:23;2.60;;;1.77;;
10299;SDS011;5195;48.562;9.192;2022-09-02T14:19:48;2.23;;;1.50;;
10299;SDS011;5195;48.562;9.192;2022-09-02T14:22:23;1.87;;;1.60;;
10299;SDS011;5195;48.562;9.192;2022-09-02T14:24:58;3.65;;;1.75;;
10299;SDS011;5195;48.562;9.192;2022-09-02T14:27:34;1.60;;;1.50;;
10299;SDS011;5195;48.562;9.192;2022-09-02T14:30:10;1.90;;;1.80;;
10299;SDS011;5195;48.562;9.192;2022-09-02T14:36:00;1.87;;;1.77;;
10299;SDS011;5195;48.562;9.192;2022-09-02T14:38:36;1.90;;;1.40;;
10299;SDS011;5195;48.562;9.192;2022-09-02T14:44:10;1.53;;;1.43;;
10299;SDS011;5195;48.562;9.192;2022-09-02T14:46:45;1.77;;;1.67;;
10299;SDS011;5195;48.562;9.192;2022-09-02T14:49:28;1.83;;;1.73;;
10299;SDS011;5195;48.562;9.192;2022-09-02T14:52:04;1.60;;;1.50;;
10299;SDS011;5195;48.562;9.192;2022-09-02T14:54:46;1.60;;;1.50;;
10299;SDS011;5195;48.562;9.192;2022-09-02T14:57:32;1.60;;;1.50;;
10299;SDS011;5195;48.562;9.192;2022-09-02T15:00:08;1.60;;;1.60;;
10299;SDS011;5195;48.562;9.192;2022-09-02T15:05:24;1.67;;;1.57;;
10299;SDS011;5195;48.562;9.192;2022-09-02T15:07:59;1.90;;;1.80;;
10299;SDS011;5195;48.562;9.192;2022-09-02T15:10:36;1.83;;;1.73;;
10299;SDS011;5195;48.562;9.192;2022-09-02T15:13:22;1.53;;;1.43;;
10299;SDS011;5195;48.562;9.192;2022-09-02T15:15:54;1.60;;;1.50;;
10299;SDS011;5195;48.562;9.192;2022-09-02T15:18:29;1.60;;;1.50;;
10299;SDS011;5195;48.562;9.192;2022-09-02T15:21:06;1.50;;;1.40;;
10299;SDS011;5195;48.562;9.192;2022-09-02T15:23:42;1.48;;;1.37;;
10299;SDS011;5195;48.562;9.192;2022-09-02T15:26:17;2.28;;;1.60;;
10299;SDS011;5195;48.562;9.192;2022-09-02T15:29:12;2.20;;;2.10;;
10299;SDS011;5195;48.562;9.192;2022-09-02T15:31:52;1.67;;;1.57;;
10299;SDS011;5195;48.562;9.192;2022-09-02T15:34:27;1.40;;;1.30;;
10299;SDS011;5195;48.562;9.192;2022-09-02T15:37:02;2.00;;;1.60;;
10299;SDS011;5195;48.562;9.192;2022-09-02T15:42:28;1.80;;;1.70;;
10299;SDS011;5195;48.562;9.192;2022-09-02T15:45:04;1.20;;;1.20;;
10299;SDS011;5195;48.562;9.192;2022-09-02T15:47:39;1.40;;;1.40;;
10299;SDS011;5195;48.562;9.192;2022-09-02T15:50:15;1.50;;;1.40;;
10299;SDS011;5195;48.562;9.192;2022-09-02T15:52:51;1.50;;;1.40;;
10299;SDS011;5195;48.562;9.192;2022-09-02T15:55:30;1.50;;;1.50;;
10299;SDS011;5195;48.562;9.192;2022-09-02T15:58:03;1.43;;;1.33;;
10299;SDS011;5195;48.562;9.192;2022-09-02T16:00:38;1.97;;;1.50;;
10299;SDS011;5195;48.562;9.192;2022-09-02T16:03:14;1.70;;;1.30;;
10299;SDS011;5195;48.562;9.192;2022-09-02T16:05:50;2.73;;;1.50;;
10299;SDS011;5195;48.562;9.192;2022-09-02T16:08:26;1.20;;;1.20;;
10299;SDS011;5195;48.562;9.192;2022-09-02T16:11:02;1.60;;;1.50;;
10299;SDS011;5195;48.562;9.192;2022-09-02T16:13:37;1.83;;;1.73;;
10299;SDS011;5195;48.562;9.192;2022-09-02T16:16:13;1.97;;;1.73;;
10299;SDS011;5195;48.562;9.192;2022-09-02T16:18:49;2.83;;;1.50;;
10299;SDS011;5195;48.562;9.192;2022-09-02T16:21:23;2.17;;;1.60;;
10299;SDS011;5195;48.562;9.192;2022-09-02T16:23:59;3.60;;;3.35;;
10299;SDS011;5195;48.562;9.192;2022-09-02T16:26:38;3.60;;;3.37;;
10299;SDS011;5195;48.562;9.192;2022-09-02T16:29:14;1.60;;;1.40;;
10299;SDS011;5195;48.562;9.192;2022-09-02T16:31:49;1.70;;;1.53;;
10299;SDS011;5195;48.562;9.192;2022-09-02T16:34:25;1.47;;;1.37;;
10299;SDS011;5195;48.562;9.192;2022-09-02T16:37:02;1.80;;;1.30;;
10299;SDS011;5195;48.562;9.192;2022-09-02T16:39:38;3.80;;;1.40;;
10299;SDS011;5195;48.562;9.192;2022-09-02T16:42:14;2.12;;;1.33;;
10299;SDS011;5195;48.562;9.192;2022-09-02T16:44:50;2.60;;;1.50;;
10299;SDS011;5195;48.562;9.192;2022-09-02T16:47:25;1.60;;;1.50;;
10299;SDS011;5195;48.562;9.192;2022-09-02T16:50:01;1.87;;;1.77;;
10299;SDS011;5195;48.562;9.192;2022-09-02T16:52:38;2.40;;;1.90;;
10299;SDS011;5195;48.562;9.192;2022-09-02T16:55:14;2.30;;;2.10;;
10299;SDS011;5195;48.562;9.192;2022-09-02T16:57:50;1.83;;;1.73;;
10299;SDS011;5195;48.562;9.192;2022-09-02T17:00:26;2.10;;;2.00;;
10299;SDS011;5195;48.562;9.192;2022-09-02T17:03:01;2.30;;;1.93;;